Portada
METAR-TAF:

METAR-TAF

Aeropuertos :

Aeropuerto Internacional de Nuakchot

Nuakchot, Mauritania

latitud: 18-18-36N, longitud: 015-58-11W, altitud: 3 m

Observación

El informe se hizo hace 18 minutos, a las 07:00 UTC
Viento 5 kt del norte-noroeste
Temperatura 18°C
Humedad 88%
Presión 1009 hPa
Visibilidad: 6000 m

METAR: GQNO 210700Z 34005KT 6000 NSC 18/16 Q1009 NOSIG

Hora: 07:18 (07:18 UTC)

Pronóstico

El informe se hizo hace 2 horas y 18 minutos, a las 05:00 UTC
Pronóstico válido del 21 a las 06 UTC al 22 a las 12 UTC
Viento 12 kt del norte-noroeste
Visibilidad: 8000 m
Probabilidad 30% :
Temporalmente
del 21 a las 06 UTC al 21 a las 08 UTC
Cielo nuboso a una altura de 1000 ft
Temporalmente
del 21 a las 09 UTC al 21 a las 12 UTC
Viento 12 kt del noreste

TAF: GQNO 210500Z 2106/2212 34012KT 8000 NSC PROB30 TEMPO 2106/2108 BKN010 TEMPO 2109/2112 04012KT

Observaciones y pronósticos meteorológicos de más de 4000 aeropuertos (mensajes METAR y TAF).

Los puntos amarillos y rojos representan las estaciones disponibles.

Ponga el ratón en el punto deseado para ver el nombre de la estación.

Haga clic para ver las observaciones y los pronósticos meteorológicos.

Para cambiar el mapa : haga clic en los botones verdes con una cruz de color negro para hacer un zoom, en el botón verde con un guión para alejar o en las flechas verdes para mapas adyacentes.


METAR-TAF: